sensor_id;sensor_type;location;lat;lon;timestamp;pressure;altitude;pressure_sealevel;temperature;humidity
25759;BME280;13604;52.496;13.456;2023-05-10T00:01:26;100860.66;;;10.13;62.83
25759;BME280;13604;52.496;13.456;2023-05-10T00:03:51;100845.81;;;10.10;62.82
25759;BME280;13604;52.496;13.456;2023-05-10T00:06:16;100833.25;;;10.02;62.87
25759;BME280;13604;52.496;13.456;2023-05-10T00:08:42;100801.09;;;9.83;63.22
25759;BME280;13604;52.496;13.456;2023-05-10T00:11:07;100875.22;;;10.09;63.82
25759;BME280;13604;52.496;13.456;2023-05-10T00:13:35;100835.69;;;9.99;63.85
25759;BME280;13604;52.496;13.456;2023-05-10T00:16:01;100834.88;;;10.00;63.59
25759;BME280;13604;52.496;13.456;2023-05-10T00:18:26;100823.03;;;9.88;64.01
25759;BME280;13604;52.496;13.456;2023-05-10T00:20:51;100853.69;;;10.12;64.68
25759;BME280;13604;52.496;13.456;2023-05-10T00:23:17;100842.50;;;9.97;64.39
25759;BME280;13604;52.496;13.456;2023-05-10T00:25:42;100834.13;;;10.20;63.61
25759;BME280;13604;52.496;13.456;2023-05-10T00:28:08;100815.03;;;10.02;64.29
25759;BME280;13604;52.496;13.456;2023-05-10T00:30:33;100847.59;;;10.11;64.65
25759;BME280;13604;52.496;13.456;2023-05-10T00:32:59;100848.94;;;10.03;65.12
25759;BME280;13604;52.496;13.456;2023-05-10T00:35:24;100822.38;;;9.92;65.19
25759;BME280;13604;52.496;13.456;2023-05-10T00:37:49;100830.50;;;9.99;64.24
25759;BME280;13604;52.496;13.456;2023-05-10T00:40:15;100728.28;;;9.29;64.98
25759;BME280;13604;52.496;13.456;2023-05-10T00:42:40;100827.19;;;9.85;65.21
25759;BME280;13604;52.496;13.456;2023-05-10T00:45:07;100760.06;;;9.42;65.17
25759;BME280;13604;52.496;13.456;2023-05-10T00:47:33;100793.75;;;9.56;65.17
25759;BME280;13604;52.496;13.456;2023-05-10T00:49:59;100782.47;;;9.56;64.93
25759;BME280;13604;52.496;13.456;2023-05-10T00:52:27;100810.38;;;9.60;65.48
25759;BME280;13604;52.496;13.456;2023-05-10T00:54:54;100799.81;;;9.57;65.64
25759;BME280;13604;52.496;13.456;2023-05-10T00:57:19;100793.41;;;9.50;66.43
25759;BME280;13604;52.496;13.456;2023-05-10T00:59:45;100817.53;;;9.64;65.96
25759;BME280;13604;52.496;13.456;2023-05-10T01:02:10;100797.50;;;9.45;66.13
25759;BME280;13604;52.496;13.456;2023-05-10T01:04:37;100752.47;;;9.28;66.34
25759;BME280;13604;52.496;13.456;2023-05-10T01:07:02;100797.81;;;9.51;66.07
25759;BME280;13604;52.496;13.456;2023-05-10T01:09:28;100767.09;;;9.26;65.89
25759;BME280;13604;52.496;13.456;2023-05-10T01:11:53;100813.69;;;9.39;66.45
25759;BME280;13604;52.496;13.456;2023-05-10T01:14:20;100782.44;;;9.38;66.75
25759;BME280;13604;52.496;13.456;2023-05-10T01:16:47;100763.50;;;9.24;67.10
25759;BME280;13604;52.496;13.456;2023-05-10T01:19:22;100755.91;;;9.11;67.26
25759;BME280;13604;52.496;13.456;2023-05-10T01:22:02;100762.09;;;9.13;67.56
25759;BME280;13604;52.496;13.456;2023-05-10T01:25:01;100759.44;;;9.11;67.17
25759;BME280;13604;52.496;13.456;2023-05-10T01:28:07;100772.94;;;9.22;67.61
25759;BME280;13604;52.496;13.456;2023-05-10T01:30:50;100741.19;;;8.93;67.56
25759;BME280;13604;52.496;13.456;2023-05-10T01:36:30;100765.53;;;8.95;68.38
25759;BME280;13604;52.496;13.456;2023-05-10T01:39:18;100756.53;;;8.89;68.85
25759;BME280;13604;52.496;13.456;2023-05-10T01:41:59;100787.94;;;8.93;69.94
25759;BME280;13604;52.496;13.456;2023-05-10T01:47:42;100787.78;;;8.90;69.82
25759;BME280;13604;52.496;13.456;2023-05-10T01:50:12;100757.34;;;8.71;69.88
25759;BME280;13604;52.496;13.456;2023-05-10T01:52:45;100745.81;;;8.66;69.95
25759;BME280;13604;52.496;13.456;2023-05-10T01:55:14;100714.22;;;8.42;69.79
25759;BME280;13604;52.496;13.456;2023-05-10T01:57:43;100714.88;;;8.38;70.47
25759;BME280;13604;52.496;13.456;2023-05-10T02:00:10;100790.13;;;8.86;70.68
25759;BME280;13604;52.496;13.456;2023-05-10T02:02:39;100748.25;;;8.63;70.43
25759;BME280;13604;52.496;13.456;2023-05-10T02:05:06;100716.81;;;8.42;70.82
25759;BME280;13604;52.496;13.456;2023-05-10T02:07:34;100779.47;;;8.97;70.44
25759;BME280;13604;52.496;13.456;2023-05-10T02:10:06;100778.50;;;8.95;70.27
25759;BME280;13604;52.496;13.456;2023-05-10T02:12:35;100783.88;;;8.82;70.39
25759;BME280;13604;52.496;13.456;2023-05-10T02:15:02;100676.81;;;8.05;71.23
25759;BME280;13604;52.496;13.456;2023-05-10T02:17:31;100729.78;;;8.42;71.75
25759;BME280;13604;52.496;13.456;2023-05-10T02:19:58;100570.84;;;7.47;71.23
25759;BME280;13604;52.496;13.456;2023-05-10T02:22:26;100751.91;;;8.35;72.05
25759;BME280;13604;52.496;13.456;2023-05-10T02:24:57;100766.31;;;8.45;72.27
25759;BME280;13604;52.496;13.456;2023-05-10T02:27:23;100749.78;;;8.43;71.50
25759;BME280;13604;52.496;13.456;2023-05-10T02:29:50;100693.91;;;8.02;72.54
25759;BME280;13604;52.496;13.456;2023-05-10T02:32:17;100757.09;;;8.35;72.78
25759;BME280;13604;52.496;13.456;2023-05-10T02:34:44;100753.56;;;8.33;73.02
25759;BME280;13604;52.496;13.456;2023-05-10T02:37:13;100776.00;;;8.47;72.87
25759;BME280;13604;52.496;13.456;2023-05-10T02:39:40;100778.22;;;8.41;73.09
25759;BME280;13604;52.496;13.456;2023-05-10T02:42:11;100775.53;;;8.40;73.45
25759;BME280;13604;52.496;13.456;2023-05-10T02:44:40;100773.50;;;8.34;73.25
25759;BME280;13604;52.496;13.456;2023-05-10T02:47:06;100711.19;;;8.01;73.42
25759;BME280;13604;52.496;13.456;2023-05-10T02:49:32;100777.06;;;8.36;73.14
25759;BME280;13604;52.496;13.456;2023-05-10T02:52:00;100766.88;;;8.39;73.31
25759;BME280;13604;52.496;13.456;2023-05-10T02:54:32;100771.97;;;8.38;73.37
25759;BME280;13604;52.496;13.456;2023-05-10T02:57:03;100699.91;;;8.01;73.05
25759;BME280;13604;52.496;13.456;2023-05-10T02:59:29;100747.72;;;8.21;73.24
25759;BME280;13604;52.496;13.456;2023-05-10T03:01:55;100685.59;;;7.76;73.90
25759;BME280;13604;52.496;13.456;2023-05-10T03:04:20;100708.22;;;7.79;74.03
25759;BME280;13604;52.496;13.456;2023-05-10T03:06:45;100787.81;;;8.11;74.55
25759;BME280;13604;52.496;13.456;2023-05-10T03:09:12;100730.63;;;7.93;73.87
25759;BME280;13604;52.496;13.456;2023-05-10T03:14:34;100768.03;;;8.13;74.14
25759;BME280;13604;52.496;13.456;2023-05-10T03:17:10;100768.50;;;8.06;74.58
25759;BME280;13604;52.496;13.456;2023-05-10T03:19:44;100691.44;;;7.72;73.77
25759;BME280;13604;52.496;13.456;2023-05-10T03:22:12;100768.22;;;8.16;73.90
25759;BME280;13604;52.496;13.456;2023-05-10T03:24:42;100760.00;;;8.08;74.11
25759;BME280;13604;52.496;13.456;2023-05-10T03:27:10;100747.84;;;7.92;74.30
25759;BME280;13604;52.496;13.456;2023-05-10T03:29:37;100759.91;;;8.07;74.13
25759;BME280;13604;52.496;13.456;2023-05-10T03:32:03;100737.88;;;7.84;74.84
25759;BME280;13604;52.496;13.456;2023-05-10T03:34:31;100761.44;;;8.03;74.25
25759;BME280;13604;52.496;13.456;2023-05-10T03:36:57;100671.16;;;7.50;74.23
25759;BME280;13604;52.496;13.456;2023-05-10T03:39:22;100783.97;;;8.04;74.78
25759;BME280;13604;52.496;13.456;2023-05-10T03:41:47;100666.56;;;7.44;74.78
25759;BME280;13604;52.496;13.456;2023-05-10T03:44:13;100741.13;;;7.80;74.48
25759;BME280;13604;52.496;13.456;2023-05-10T03:46:39;100743.75;;;7.96;74.17
25759;BME280;13604;52.496;13.456;2023-05-10T03:49:04;100735.28;;;7.84;73.81
25759;BME280;13604;52.496;13.456;2023-05-10T03:51:30;100773.63;;;8.04;74.19
25759;BME280;13604;52.496;13.456;2023-05-10T03:53:56;100753.69;;;7.88;74.26
25759;BME280;13604;52.496;13.456;2023-05-10T03:56:21;100756.16;;;8.02;73.67
25759;BME280;13604;52.496;13.456;2023-05-10T03:58:47;100752.00;;;7.89;74.08
25759;BME280;13604;52.496;13.456;2023-05-10T04:01:12;100703.72;;;7.76;74.00
25759;BME280;13604;52.496;13.456;2023-05-10T04:03:37;100703.16;;;7.65;74.14
25759;BME280;13604;52.496;13.456;2023-05-10T04:06:03;100676.97;;;7.61;73.82
25759;BME280;13604;52.496;13.456;2023-05-10T04:08:29;100745.63;;;7.99;73.84
25759;BME280;13604;52.496;13.456;2023-05-10T04:10:54;100715.09;;;7.78;73.73
25759;BME280;13604;52.496;13.456;2023-05-10T04:13:20;100604.59;;;7.32;73.47
25759;BME280;13604;52.496;13.456;2023-05-10T04:15:47;100740.94;;;8.08;73.33
25759;BME280;13604;52.496;13.456;2023-05-10T04:18:12;100757.56;;;8.11;74.23
25759;BME280;13604;52.496;13.456;2023-05-10T04:20:38;100757.00;;;8.17;73.73
25759;BME280;13604;52.496;13.456;2023-05-10T04:23:03;100709.13;;;7.96;73.12
25759;BME280;13604;52.496;13.456;2023-05-10T04:25:28;100735.44;;;8.18;73.46
25759;BME280;13604;52.496;13.456;2023-05-10T04:27:54;100752.75;;;8.34;73.21
25759;BME280;13604;52.496;13.456;2023-05-10T04:30:19;100739.03;;;8.37;72.85
25759;BME280;13604;52.496;13.456;2023-05-10T04:32:44;100744.94;;;8.49;72.11
25759;BME280;13604;52.496;13.456;2023-05-10T04:35:09;100732.59;;;8.45;71.90
25759;BME280;13604;52.496;13.456;2023-05-10T04:37:35;100729.91;;;8.60;70.95
25759;BME280;13604;52.496;13.456;2023-05-10T04:40:01;100725.03;;;8.66;71.25
25759;BME280;13604;52.496;13.456;2023-05-10T04:42:28;100690.84;;;8.42;71.37
25759;BME280;13604;52.496;13.456;2023-05-10T04:44:53;100723.03;;;8.60;70.87
25759;BME280;13604;52.496;13.456;2023-05-10T04:47:20;100714.75;;;8.68;70.96
25759;BME280;13604;52.496;13.456;2023-05-10T04:49:45;100710.84;;;8.76;69.94
25759;BME280;13604;52.496;13.456;2023-05-10T04:52:10;100727.44;;;8.96;69.77
25759;BME280;13604;52.496;13.456;2023-05-10T04:54:36;100617.84;;;8.51;68.98
25759;BME280;13604;52.496;13.456;2023-05-10T04:57:01;100670.75;;;8.87;68.47
25759;BME280;13604;52.496;13.456;2023-05-10T04:59:27;100689.44;;;8.98;68.99
25759;BME280;13604;52.496;13.456;2023-05-10T05:01:52;100690.44;;;9.00;69.01
25759;BME280;13604;52.496;13.456;2023-05-10T05:04:17;100735.41;;;9.33;68.50
25759;BME280;13604;52.496;13.456;2023-05-10T05:06:46;100710.97;;;9.30;67.52
25759;BME280;13604;52.496;13.456;2023-05-10T05:09:12;100722.19;;;9.47;66.97
25759;BME280;13604;52.496;13.456;2023-05-10T05:11:39;100715.97;;;9.43;67.19
25759;BME280;13604;52.496;13.456;2023-05-10T05:14:05;100722.13;;;9.45;67.05
25759;BME280;13604;52.496;13.456;2023-05-10T05:16:30;100684.84;;;9.45;66.13
25759;BME280;13604;52.496;13.456;2023-05-10T05:18:57;100717.47;;;9.74;65.64
25759;BME280;13604;52.496;13.456;2023-05-10T05:21:22;100729.63;;;9.93;65.55
25759;BME280;13604;52.496;13.456;2023-05-10T05:23:47;100700.03;;;9.91;64.81
25759;BME280;13604;52.496;13.456;2023-05-10T05:26:13;100708.16;;;9.79;64.56
25759;BME280;13604;52.496;13.456;2023-05-10T05:28:38;100702.72;;;9.92;64.87
25759;BME280;13604;52.496;13.456;2023-05-10T05:31:07;100683.88;;;9.98;63.78
25759;BME280;13604;52.496;13.456;2023-05-10T05:33:33;100563.41;;;9.42;64.13
25759;BME280;13604;52.496;13.456;2023-05-10T05:36:03;100726.94;;;10.66;63.28
25759;BME280;13604;52.496;13.456;2023-05-10T05:38:28;100720.50;;;10.78;61.74
25759;BME280;13604;52.496;13.456;2023-05-10T05:40:54;100730.25;;;11.03;63.13
25759;BME280;13604;52.496;13.456;2023-05-10T05:43:19;100730.09;;;11.19;61.50
25759;BME280;13604;52.496;13.456;2023-05-10T05:45:45;100701.84;;;11.09;61.16
25759;BME280;13604;52.496;13.456;2023-05-10T05:48:10;100713.66;;;11.41;60.45
25759;BME280;13604;52.496;13.456;2023-05-10T05:50:35;100698.00;;;11.41;59.97
25759;BME280;13604;52.496;13.456;2023-05-10T05:53:01;100653.97;;;11.28;59.42
25759;BME280;13604;52.496;13.456;2023-05-10T05:55:26;100679.00;;;11.67;58.88
25759;BME280;13604;52.496;13.456;2023-05-10T05:57:51;100715.72;;;11.92;58.14
25759;BME280;13604;52.496;13.456;2023-05-10T06:00:17;100687.59;;;11.87;57.24
25759;BME280;13604;52.496;13.456;2023-05-10T06:02:42;100698.91;;;12.08;56.82
25759;BME280;13604;52.496;13.456;2023-05-10T06:05:08;100711.75;;;12.26;57.09
25759;BME280;13604;52.496;13.456;2023-05-10T06:07:34;100694.47;;;12.30;57.57
25759;BME280;13604;52.496;13.456;2023-05-10T06:10:00;100715.53;;;12.57;56.59
25759;BME280;13604;52.496;13.456;2023-05-10T06:12:26;100736.72;;;12.65;56.16
25759;BME280;13604;52.496;13.456;2023-05-10T06:14:51;100706.69;;;12.54;55.42
25759;BME280;13604;52.496;13.456;2023-05-10T06:17:17;100704.25;;;12.58;55.97
25759;BME280;13604;52.496;13.456;2023-05-10T06:19:43;100711.06;;;12.79;55.68
25759;BME280;13604;52.496;13.456;2023-05-10T06:22:09;100670.53;;;12.66;54.80
25759;BME280;13604;52.496;13.456;2023-05-10T06:24:35;100729.25;;;13.00;54.47
25759;BME280;13604;52.496;13.456;2023-05-10T06:27:00;100723.22;;;13.02;54.48
25759;BME280;13604;52.496;13.456;2023-05-10T06:29:26;100710.13;;;13.02;54.67
25759;BME280;13604;52.496;13.456;2023-05-10T06:31:51;100680.97;;;12.90;54.99
25759;BME280;13604;52.496;13.456;2023-05-10T06:34:16;100681.13;;;12.95;54.31
25759;BME280;13604;52.496;13.456;2023-05-10T06:36:41;100707.38;;;13.23;54.23
25759;BME280;13604;52.496;13.456;2023-05-10T06:39:07;100667.44;;;13.02;53.69
25759;BME280;13604;52.496;13.456;2023-05-10T06:41:32;100696.09;;;13.24;54.10
25759;BME280;13604;52.496;13.456;2023-05-10T06:43:59;100697.66;;;13.45;54.10
25759;BME280;13604;52.496;13.456;2023-05-10T06:46:26;100700.53;;;13.53;53.91
25759;BME280;13604;52.496;13.456;2023-05-10T06:48:51;100683.19;;;13.56;52.88
25759;BME280;13604;52.496;13.456;2023-05-10T06:51:16;100725.75;;;13.78;53.32
25759;BME280;13604;52.496;13.456;2023-05-10T06:53:42;100667.78;;;13.38;53.14
25759;BME280;13604;52.496;13.456;2023-05-10T06:56:08;100690.94;;;13.53;52.90
25759;BME280;13604;52.496;13.456;2023-05-10T06:58:33;100715.16;;;13.73;52.82
25759;BME280;13604;52.496;13.456;2023-05-10T07:01:03;100704.69;;;13.73;52.40
25759;BME280;13604;52.496;13.456;2023-05-10T07:03:28;100701.22;;;13.74;52.22
25759;BME280;13604;52.496;13.456;2023-05-10T07:05:53;100708.44;;;13.83;53.03
25759;BME280;13604;52.496;13.456;2023-05-10T07:08:20;100677.03;;;13.83;53.00
25759;BME280;13604;52.496;13.456;2023-05-10T07:10:45;100720.16;;;14.23;52.76
25759;BME280;13604;52.496;13.456;2023-05-10T07:13:10;100708.66;;;14.18;52.04
25759;BME280;13604;52.496;13.456;2023-05-10T07:15:36;100698.59;;;14.32;51.41
25759;BME280;13604;52.496;13.456;2023-05-10T07:18:01;100705.84;;;14.42;51.12
25759;BME280;13604;52.496;13.456;2023-05-10T07:20:32;100703.81;;;14.61;51.70
25759;BME280;13604;52.496;13.456;2023-05-10T07:22:57;100658.78;;;14.45;51.26
25759;BME280;13604;52.496;13.456;2023-05-10T07:25:23;100706.38;;;14.91;50.44
25759;BME280;13604;52.496;13.456;2023-05-10T07:27:49;100672.59;;;14.70;50.86
25759;BME280;13604;52.496;13.456;2023-05-10T07:30:14;100685.19;;;14.83;50.78
25759;BME280;13604;52.496;13.456;2023-05-10T07:32:40;100707.94;;;15.18;50.26
25759;BME280;13604;52.496;13.456;2023-05-10T07:35:07;100676.09;;;15.02;50.23
25759;BME280;13604;52.496;13.456;2023-05-10T07:37:32;100657.66;;;14.99;49.83
25759;BME280;13604;52.496;13.456;2023-05-10T07:39:57;100664.19;;;15.15;50.06
25759;BME280;13604;52.496;13.456;2023-05-10T07:42:23;100659.19;;;15.26;49.13
25759;BME280;13604;52.496;13.456;2023-05-10T07:44:48;100711.16;;;15.76;49.05
25759;BME280;13604;52.496;13.456;2023-05-10T07:47:13;100634.72;;;16.03;47.26
25759;BME280;13604;52.496;13.456;2023-05-10T07:49:39;100680.72;;;16.24;46.34
25759;BME280;13604;52.496;13.456;2023-05-10T07:52:04;100653.53;;;15.82;47.57
25759;BME280;13604;52.496;13.456;2023-05-10T07:54:30;100683.06;;;16.54;45.95
25759;BME280;13604;52.496;13.456;2023-05-10T07:56:55;100690.81;;;16.92;45.83
25759;BME280;13604;52.496;13.456;2023-05-10T07:59:20;100686.88;;;17.16;44.89
25759;BME280;13604;52.496;13.456;2023-05-10T08:01:46;100683.94;;;17.51;44.65
25759;BME280;13604;52.496;13.456;2023-05-10T08:04:11;100685.50;;;17.93;44.16
25759;BME280;13604;52.496;13.456;2023-05-10T08:06:36;100680.31;;;18.00;43.00
25759;BME280;13604;52.496;13.456;2023-05-10T08:09:02;100622.34;;;18.02;42.35
25759;BME280;13604;52.496;13.456;2023-05-10T08:11:27;100666.91;;;18.54;42.18
25759;BME280;13604;52.496;13.456;2023-05-10T08:13:53;100658.53;;;18.90;41.35
25759;BME280;13604;52.496;13.456;2023-05-10T08:16:18;100674.09;;;19.62;40.47
25759;BME280;13604;52.496;13.456;2023-05-10T08:18:45;100694.47;;;19.76;38.83
25759;BME280;13604;52.496;13.456;2023-05-10T08:21:12;100699.00;;;19.94;39.48
25759;BME280;13604;52.496;13.456;2023-05-10T08:23:39;100667.25;;;19.91;39.11
25759;BME280;13604;52.496;13.456;2023-05-10T08:26:09;100683.28;;;20.29;38.22
25759;BME280;13604;52.496;13.456;2023-05-10T08:28:34;100681.44;;;20.08;38.74
25759;BME280;13604;52.496;13.456;2023-05-10T08:31:00;100646.81;;;19.65;39.55
25759;BME280;13604;52.496;13.456;2023-05-10T08:33:25;100617.78;;;19.70;38.54
25759;BME280;13604;52.496;13.456;2023-05-10T08:35:51;100682.66;;;21.20;37.85
25759;BME280;13604;52.496;13.456;2023-05-10T08:38:16;100563.50;;;21.26;36.23
25759;BME280;13604;52.496;13.456;2023-05-10T08:40:42;100684.44;;;21.70;35.94
25759;BME280;13604;52.496;13.456;2023-05-10T08:43:12;100645.59;;;21.57;35.71
25759;BME280;13604;52.496;13.456;2023-05-10T08:45:43;100651.75;;;20.91;37.10
25759;BME280;13604;52.496;13.456;2023-05-10T08:48:09;100679.75;;;22.60;35.60
25759;BME280;13604;52.496;13.456;2023-05-10T08:50:39;100695.94;;;23.50;33.61
25759;BME280;13604;52.496;13.456;2023-05-10T08:53:08;100704.03;;;24.28;32.57
25759;BME280;13604;52.496;13.456;2023-05-10T08:55:34;100673.84;;;24.30;32.93
25759;BME280;13604;52.496;13.456;2023-05-10T08:58:01;100683.66;;;23.37;33.29
25759;BME280;13604;52.496;13.456;2023-05-10T09:00:28;100652.28;;;23.76;32.12
25759;BME280;13604;52.496;13.456;2023-05-10T09:02:53;100665.31;;;24.03;32.09
25759;BME280;13604;52.496;13.456;2023-05-10T09:05:18;100665.56;;;23.77;32.21
25759;BME280;13604;52.496;13.456;2023-05-10T09:07:43;100686.81;;;23.80;32.48
25759;BME280;13604;52.496;13.456;2023-05-10T09:10:11;100699.38;;;23.61;32.17
25759;BME280;13604;52.496;13.456;2023-05-10T09:12:36;100697.47;;;23.77;31.77
25759;BME280;13604;52.496;13.456;2023-05-10T09:15:03;100678.91;;;22.53;34.21
25759;BME280;13604;52.496;13.456;2023-05-10T09:17:29;100653.81;;;23.01;33.63
25759;BME280;13604;52.496;13.456;2023-05-10T09:20:03;100703.22;;;23.28;33.63
25759;BME280;13604;52.496;13.456;2023-05-10T09:22:30;100672.22;;;23.28;33.16
25759;BME280;13604;52.496;13.456;2023-05-10T09:25:08;100700.63;;;24.18;32.00
25759;BME280;13604;52.496;13.456;2023-05-10T09:27:35;100689.94;;;25.47;30.86
25759;BME280;13604;52.496;13.456;2023-05-10T09:30:01;100692.06;;;24.66;30.88
25759;BME280;13604;52.496;13.456;2023-05-10T09:32:40;100705.06;;;25.46;30.41
25759;BME280;13604;52.496;13.456;2023-05-10T09:35:14;100690.09;;;24.05;31.16
25759;BME280;13604;52.496;13.456;2023-05-10T09:37:41;100694.81;;;25.19;30.03
25759;BME280;13604;52.496;13.456;2023-05-10T09:40:07;100654.47;;;26.35;28.87
25759;BME280;13604;52.496;13.456;2023-05-10T09:42:34;100704.13;;;24.90;30.39
25759;BME280;13604;52.496;13.456;2023-05-10T09:45:03;100707.06;;;25.32;30.14
25759;BME280;13604;52.496;13.456;2023-05-10T09:47:29;100689.88;;;25.50;30.49
25759;BME280;13604;52.496;13.456;2023-05-10T09:49:55;100731.59;;;24.22;31.40
25759;BME280;13604;52.496;13.456;2023-05-10T09:52:31;100692.56;;;25.50;29.67
25759;BME280;13604;52.496;13.456;2023-05-10T09:55:10;100707.84;;;24.05;31.34
25759;BME280;13604;52.496;13.456;2023-05-10T09:57:35;100712.97;;;25.51;29.76
25759;BME280;13604;52.496;13.456;2023-05-10T10:00:01;100716.84;;;24.71;30.49
25759;BME280;13604;52.496;13.456;2023-05-10T10:02:29;100708.00;;;25.82;30.02
25759;BME280;13604;52.496;13.456;2023-05-10T10:04:55;100681.13;;;26.38;28.40
25759;BME280;13604;52.496;13.456;2023-05-10T10:07:23;100704.63;;;26.63;28.02
25759;BME280;13604;52.496;13.456;2023-05-10T10:09:49;100699.69;;;27.95;27.43
25759;BME280;13604;52.496;13.456;2023-05-10T10:12:15;100702.44;;;29.39;25.46
25759;BME280;13604;52.496;13.456;2023-05-10T10:14:41;100697.38;;;29.03;25.25
25759;BME280;13604;52.496;13.456;2023-05-10T10:17:07;100703.63;;;30.33;25.10
25759;BME280;13604;52.496;13.456;2023-05-10T10:19:34;100662.47;;;30.08;24.10
25759;BME280;13604;52.496;13.456;2023-05-10T10:22:00;100694.25;;;31.77;22.66
25759;BME280;13604;52.496;13.456;2023-05-10T10:24:25;100683.16;;;29.81;24.22
25759;BME280;13604;52.496;13.456;2023-05-10T10:26:52;100684.78;;;31.46;23.26
25759;BME280;13604;52.496;13.456;2023-05-10T10:29:26;100689.28;;;30.10;24.32
25759;BME280;13604;52.496;13.456;2023-05-10T10:32:16;100692.00;;;28.14;25.74
25759;BME280;13604;52.496;13.456;2023-05-10T10:34:45;100631.72;;;26.97;26.11
25759;BME280;13604;52.496;13.456;2023-05-10T10:37:11;100667.97;;;28.72;24.91
25759;BME280;13604;52.496;13.456;2023-05-10T10:39:36;100640.88;;;28.81;25.11
25759;BME280;13604;52.496;13.456;2023-05-10T10:42:02;100691.06;;;29.04;24.20
25759;BME280;13604;52.496;13.456;2023-05-10T10:44:33;100689.66;;;29.99;24.12
25759;BME280;13604;52.496;13.456;2023-05-10T10:50:01;100696.78;;;28.93;24.98
25759;BME280;13604;52.496;13.456;2023-05-10T10:52:29;100694.94;;;28.95;25.26
25759;BME280;13604;52.496;13.456;2023-05-10T10:55:01;100695.06;;;29.72;24.16
25759;BME280;13604;52.496;13.456;2023-05-10T10:57:30;100692.06;;;30.78;23.28
25759;BME280;13604;52.496;13.456;2023-05-10T11:00:27;100685.06;;;29.24;24.88
25759;BME280;13604;52.496;13.456;2023-05-10T11:03:03;100686.78;;;28.98;25.15
25759;BME280;13604;52.496;13.456;2023-05-10T11:07:59;100631.63;;;27.70;25.39
25759;BME280;13604;52.496;13.456;2023-05-10T11:10:25;100677.78;;;28.12;25.99
25759;BME280;13604;52.496;13.456;2023-05-10T11:13:04;100672.69;;;27.33;26.68
25759;BME280;13604;52.496;13.456;2023-05-10T11:15:32;100635.94;;;27.42;26.05
25759;BME280;13604;52.496;13.456;2023-05-10T11:17:58;100684.19;;;27.39;26.89
25759;BME280;13604;52.496;13.456;2023-05-10T11:20:27;100671.09;;;29.41;24.96
25759;BME280;13604;52.496;13.456;2023-05-10T11:22:59;100670.81;;;28.67;25.04
25759;BME280;13604;52.496;13.456;2023-05-10T11:25:40;100653.59;;;29.56;23.67
25759;BME280;13604;52.496;13.456;2023-05-10T11:28:06;100701.84;;;29.58;23.87
25759;BME280;13604;52.496;13.456;2023-05-10T11:30:31;100696.34;;;29.87;23.78
25759;BME280;13604;52.496;13.456;2023-05-10T11:32:57;100648.78;;;30.15;24.13
25759;BME280;13604;52.496;13.456;2023-05-10T11:35:22;100664.44;;;29.53;23.97
25759;BME280;13604;52.496;13.456;2023-05-10T11:37:48;100643.94;;;30.24;23.88
25759;BME280;13604;52.496;13.456;2023-05-10T11:40:13;100625.22;;;29.74;24.50
25759;BME280;13604;52.496;13.456;2023-05-10T11:42:39;100673.66;;;32.36;22.35
25759;BME280;13604;52.496;13.456;2023-05-10T11:45:05;100657.03;;;30.34;22.69
25759;BME280;13604;52.496;13.456;2023-05-10T11:47:31;100672.00;;;31.31;22.97
25759;BME280;13604;52.496;13.456;2023-05-10T11:49:57;100662.72;;;31.17;22.30
25759;BME280;13604;52.496;13.456;2023-05-10T11:52:23;100658.38;;;30.22;23.00
25759;BME280;13604;52.496;13.456;2023-05-10T11:54:53;100689.13;;;32.12;21.36
25759;BME280;13604;52.496;13.456;2023-05-10T11:57:19;100676.94;;;30.28;23.22
25759;BME280;13604;52.496;13.456;2023-05-10T11:59:46;100606.53;;;28.06;24.43
25759;BME280;13604;52.496;13.456;2023-05-10T12:02:13;100682.16;;;29.84;23.94
25759;BME280;13604;52.496;13.456;2023-05-10T12:04:38;100644.06;;;30.69;22.81
25759;BME280;13604;52.496;13.456;2023-05-10T12:07:04;100594.22;;;30.14;22.67
25759;BME280;13604;52.496;13.456;2023-05-10T12:09:29;100696.66;;;28.96;23.36
25759;BME280;13604;52.496;13.456;2023-05-10T12:11:55;100689.09;;;28.21;25.01
25759;BME280;13604;52.496;13.456;2023-05-10T12:14:24;100653.06;;;28.63;24.11
25759;BME280;13604;52.496;13.456;2023-05-10T12:16:49;100683.31;;;30.25;23.22
25759;BME280;13604;52.496;13.456;2023-05-10T12:19:18;100672.75;;;31.57;21.75
25759;BME280;13604;52.496;13.456;2023-05-10T12:22:06;100684.34;;;30.21;22.92
25759;BME280;13604;52.496;13.456;2023-05-10T12:24:34;100679.72;;;32.79;20.35
25759;BME280;13604;52.496;13.456;2023-05-10T12:26:59;100690.50;;;32.79;20.53
25759;BME280;13604;52.496;13.456;2023-05-10T12:29:30;100685.09;;;33.87;20.10
25759;BME280;13604;52.496;13.456;2023-05-10T12:31:57;100695.31;;;32.54;21.20
25759;BME280;13604;52.496;13.456;2023-05-10T12:34:30;100616.16;;;31.98;20.64
25759;BME280;13604;52.496;13.456;2023-05-10T12:36:55;100664.72;;;31.96;21.35
25759;BME280;13604;52.496;13.456;2023-05-10T12:39:21;100673.97;;;33.24;20.09
25759;BME280;13604;52.496;13.456;2023-05-10T12:41:46;100688.44;;;33.92;19.96
25759;BME280;13604;52.496;13.456;2023-05-10T12:44:12;100649.06;;;30.78;21.66
25759;BME280;13604;52.496;13.456;2023-05-10T12:46:37;100644.31;;;32.30;20.82
25759;BME280;13604;52.496;13.456;2023-05-10T12:49:02;100571.09;;;29.11;22.61
25759;BME280;13604;52.496;13.456;2023-05-10T12:51:28;100704.84;;;31.82;20.79
25759;BME280;13604;52.496;13.456;2023-05-10T12:53:53;100640.00;;;30.58;21.45
25759;BME280;13604;52.496;13.456;2023-05-10T12:56:19;100667.25;;;30.00;22.26
25759;BME280;13604;52.496;13.456;2023-05-10T12:58:45;100678.25;;;29.92;22.72